CheckWX is a tool to help pilots better visualize weather data.  It is not intended as a substitute for an official pre-flight weather briefing.

03:43:30 UTC

KMSO TAF
Missoula International Airport
Missoula, Montana, USA
KMSO 130522Z 1306/1406 36004KT P6SM FEW070 FM131800 29011KT P6SM SKC FM140300 30002KT P6SM SKC

Jul-13@
06:00 UTC

Jul-13 @ 06:00 UTC

Jul-13@
18:00 UTC

Jul-13 @ 18:00 UTC

TAF KMSO 130522Z 1306/1406 36004KT P6SM FEW070

Expired

Wind
  • 360° at 4 KTS
Cloud Levels
  • Few at 7,000' AGL

Jul-13@
18:00 UTC

Jul-13 @ 18:00 UTC

Jul-14@
03:00 UTC

Jul-14 @ 03:00 UTC

FM131800 29011KT P6SM SKC

Expired

Wind
  • 290° at 11 KTS
Cloud Levels
  • Clear skies

Jul-14@
03:00 UTC

Jul-14 @ 03:00 UTC

Jul-14@
06:00 UTC

Jul-14 @ 06:00 UTC

FM140300 30002KT P6SM SKC

From

From Standard forecast or significant change

Wind
  • 300° at 2 KTS
Cloud Levels
  • Clear skies